Time;durP1;ratioP1;P1;durP2;ratioP2;P2;SDS_P1;SDS_P2;PMS_P1;PMS_P2;Temp;Humidity;BMP_temperature;BMP_pressure;BME280_temperature;BME280_humidity;BME280_pressure;Samples;Min_cycle;Max_cycle;Signal;HPM_P1;HPM_P2
2023/05/29 00:02:12;;;;;;;7.25;2.67;;;14.30;58.20;;;;;;5072595;28;20040;-65
2023/05/29 00:04:38;;;;;;;7.75;2.70;;;14.30;58.20;;;;;;5089188;28;20036;-65
2023/05/29 00:07:04;;;;;;;11.15;2.70;;;14.30;58.10;;;;;;5119356;27;20068;-65
2023/05/29 00:09:30;;;;;;;11.30;2.60;;;14.30;58.10;;;;;;5088980;28;20085;-65
2023/05/29 00:11:56;;;;;;;7.35;2.45;;;14.30;58.10;;;;;;5117052;27;20040;-65
2023/05/29 00:14:23;;;;;;;9.55;2.05;;;14.30;58.10;;;;;;5072440;28;20101;-65
2023/05/29 00:16:50;;;;;;;7.35;1.88;;;14.20;58.10;;;;;;5088692;28;20164;-65
2023/05/29 00:19:22;;;;;;;8.05;2.35;;;14.20;58.00;;;;;;5122427;27;20165;-64
2023/05/29 00:21:48;;;;;;;11.52;2.85;;;14.20;58.00;;;;;;5122025;27;20096;-65
2023/05/29 00:24:15;;;;;;;8.27;2.00;;;14.20;58.00;;;;;;5104873;28;20053;-65
2023/05/29 00:26:41;;;;;;;9.65;2.35;;;14.10;58.00;;;;;;5088427;28;20043;-65
2023/05/29 00:29:06;;;;;;;8.75;2.63;;;14.10;57.90;;;;;;5107473;28;20337;-65
2023/05/29 00:31:32;;;;;;;10.77;3.05;;;14.10;58.00;;;;;;5071678;28;20526;-65
2023/05/29 00:33:58;;;;;;;9.85;2.35;;;14.10;58.00;;;;;;5107482;28;20033;-65
2023/05/29 00:36:25;;;;;;;7.53;2.50;;;14.10;58.00;;;;;;5088376;28;20097;-65
2023/05/29 00:38:51;;;;;;;8.93;2.33;;;14.10;58.00;;;;;;5089717;28;20129;-65
2023/05/29 00:41:17;;;;;;;8.45;2.30;;;14.00;58.00;;;;;;5071512;28;20047;-65
2023/05/29 00:43:43;;;;;;;12.00;2.95;;;14.00;58.00;;;;;;5088268;28;20036;-65
2023/05/29 00:46:12;;;;;;;8.05;2.53;;;14.00;58.00;;;;;;5087582;28;20418;-65
2023/05/29 00:48:38;;;;;;;14.77;2.70;;;13.90;58.10;;;;;;5088591;28;20094;-65
2023/05/29 00:51:05;;;;;;;8.85;2.30;;;13.90;58.50;;;;;;5071516;28;20487;-65
2023/05/29 00:53:31;;;;;;;8.23;2.33;;;13.90;58.20;;;;;;5069137;28;20040;-65
2023/05/29 00:55:58;;;;;;;12.75;2.65;;;13.90;58.20;;;;;;5087665;28;20044;-65
2023/05/29 00:58:25;;;;;;;9.00;2.55;;;13.80;58.20;;;;;;5116164;28;20099;-65
2023/05/29 01:00:52;;;;;;;7.25;2.53;;;13.80;58.20;;;;;;5088470;28;20395;-65
2023/05/29 01:03:18;;;;;;;6.60;2.13;;;13.80;58.30;;;;;;5120766;27;20111;-65
2023/05/29 01:05:46;;;;;;;10.35;2.25;;;13.80;58.30;;;;;;5092164;28;20149;-65
2023/05/29 01:08:12;;;;;;;9.07;2.33;;;13.80;58.30;;;;;;5092251;28;20066;-65
2023/05/29 01:10:38;;;;;;;8.23;2.05;;;13.80;58.40;;;;;;5092472;28;20051;-65
2023/05/29 01:13:21;;;;;;;8.32;2.55;;;13.70;58.30;;;;;;5100800;28;20335;-65
2023/05/29 01:15:47;;;;;;;9.02;2.97;;;13.80;58.50;;;;;;5091917;28;20059;-64
2023/05/29 01:18:26;;;;;;;8.43;2.28;;;13.70;58.80;;;;;;5091681;28;20496;-65
2023/05/29 01:21:08;;;;;;;8.18;2.40;;;13.70;58.50;;;;;;5108318;28;20092;-64
2023/05/29 01:24:04;;;;;;;9.98;2.47;;;13.60;58.40;;;;;;5113556;27;20578;-64
2023/05/29 01:26:51;;;;;;;7.78;2.13;;;13.60;58.50;;;;;;5091737;28;20048;-65
2023/05/29 01:29:27;;;;;;;9.88;2.22;;;13.60;58.60;;;;;;5092121;28;20043;-68
2023/05/29 01:31:54;;;;;;;9.10;2.58;;;13.60;58.60;;;;;;5075389;28;20036;-68
2023/05/29 01:34:20;;;;;;;7.45;1.70;;;13.50;58.50;;;;;;5092416;28;20074;-68
2023/05/29 01:36:49;;;;;;;11.27;3.00;;;13.50;58.60;;;;;;5089354;28;20044;-68
2023/05/29 01:39:15;;;;;;;11.95;3.03;;;13.50;58.60;;;;;;5117565;27;20470;-68
2023/05/29 01:41:43;;;;;;;8.00;1.90;;;13.40;58.50;;;;;;5119777;27;20047;-69
2023/05/29 01:44:10;;;;;;;9.20;2.92;;;13.40;58.70;;;;;;5117343;27;20097;-69
2023/05/29 01:46:40;;;;;;;10.07;2.40;;;13.40;58.70;;;;;;5091857;28;20048;-68
2023/05/29 01:49:07;;;;;;;6.15;2.05;;;13.30;58.80;;;;;;5115382;27;20029;-68
2023/05/29 01:51:33;;;;;;;9.25;2.45;;;13.30;58.90;;;;;;5091699;28;20126;-69
2023/05/29 01:54:00;;;;;;;7.20;2.00;;;13.30;59.00;;;;;;5111893;27;20115;-69
2023/05/29 01:56:27;;;;;;;7.53;2.63;;;13.20;59.00;;;;;;5075024;28;20467;-68
2023/05/29 01:58:56;;;;;;;9.80;2.72;;;13.20;59.00;;;;;;5091532;28;20036;-68
2023/05/29 02:01:23;;;;;;;9.98;2.88;;;13.20;59.10;;;;;;5114216;27;20119;-68
2023/05/29 02:03:49;;;;;;;8.27;2.38;;;13.20;59.10;;;;;;5122601;27;20411;-68
2023/05/29 02:06:15;;;;;;;8.25;2.70;;;13.20;59.20;;;;;;5113129;27;20076;-69
2023/05/29 02:08:40;;;;;;;4.70;1.58;;;13.10;59.10;;;;;;5092814;28;20054;-68
2023/05/29 02:11:06;;;;;;;8.82;2.45;;;13.10;59.10;;;;;;5114241;27;20111;-68
2023/05/29 02:13:32;;;;;;;8.95;2.53;;;13.10;59.10;;;;;;5092415;28;20035;-69
2023/05/29 02:15:58;;;;;;;9.35;1.98;;;13.10;59.20;;;;;;5109049;27;20049;-68
2023/05/29 02:18:24;;;;;;;5.70;1.90;;;13.10;59.20;;;;;;5074180;28;20072;-68
2023/05/29 02:20:49;;;;;;;6.00;1.55;;;13.10;59.30;;;;;;5091025;28;20040;-68
2023/05/29 02:23:15;;;;;;;5.82;1.88;;;13.10;59.30;;;;;;5119142;27;20043;-68
2023/05/29 02:25:41;;;;;;;10.07;2.47;;;13.10;59.30;;;;;;5114087;27;20044;-68
2023/05/29 02:28:07;;;;;;;8.95;2.30;;;13.10;59.30;;;;;;5091863;28;20040;-68
2023/05/29 02:30:34;;;;;;;5.82;1.85;;;13.10;59.20;;;;;;5092537;28;20042;-68
2023/05/29 02:33:00;;;;;;;8.93;2.25;;;13.00;59.20;;;;;;5111971;27;20039;-68
2023/05/29 02:35:25;;;;;;;8.05;2.05;;;13.00;59.20;;;;;;5090409;28;20375;-68
2023/05/29 02:37:52;;;;;;;6.43;1.75;;;13.00;59.10;;;;;;5119136;27;20075;-68
2023/05/29 02:40:18;;;;;;;11.40;2.50;;;13.00;59.20;;;;;;5074073;28;20513;-68
2023/05/29 02:42:44;;;;;;;9.88;2.53;;;13.00;59.10;;;;;;5090869;28;20146;-69
2023/05/29 02:45:10;;;;;;;7.63;1.92;;;13.00;59.10;;;;;;5090422;28;20040;-69
2023/05/29 02:47:37;;;;;;;7.13;1.60;;;13.00;59.00;;;;;;5090323;28;20475;-68
2023/05/29 02:50:04;;;;;;;7.82;2.08;;;13.00;59.00;;;;;;5091567;28;20062;-68
2023/05/29 02:52:31;;;;;;;9.70;2.20;;;12.90;58.90;;;;;;5090191;28;20032;-68
2023/05/29 02:54:58;;;;;;;10.05;2.38;;;12.90;58.90;;;;;;5115424;27;20036;-67
2023/05/29 02:57:24;;;;;;;6.82;1.77;;;12.90;58.90;;;;;;5073648;28;20040;-68
2023/05/29 02:59:51;;;;;;;7.35;2.05;;;12.90;58.90;;;;;;5090553;28;20070;-68
2023/05/29 03:02:17;;;;;;;7.03;2.42;;;12.90;58.90;;;;;;5090146;28;20498;-68
2023/05/29 03:04:44;;;;;;;9.82;2.78;;;12.90;58.90;;;;;;5089749;28;20040;-69
2023/05/29 03:07:09;;;;;;;6.47;2.28;;;12.90;58.90;;;;;;5091689;28;20447;-68
2023/05/29 03:09:35;;;;;;;10.55;2.28;;;12.80;58.90;;;;;;5073582;28;20130;-68
2023/05/29 03:12:01;;;;;;;9.52;2.10;;;12.80;58.80;;;;;;5113559;27;20529;-68
2023/05/29 03:14:27;;;;;;;7.50;2.13;;;12.80;58.80;;;;;;5090062;28;20268;-68
2023/05/29 03:16:53;;;;;;;8.20;2.05;;;12.80;59.20;;;;;;5089849;28;20085;-68
2023/05/29 03:19:20;;;;;;;9.27;2.35;;;12.70;58.90;;;;;;5089861;28;20036;-65
2023/05/29 03:21:45;;;;;;;7.22;1.70;;;12.70;58.90;;;;;;5110094;27;20483;-65
2023/05/29 03:24:13;;;;;;;7.70;2.13;;;12.70;58.90;;;;;;5090668;28;20044;-64
2023/05/29 03:26:39;;;;;;;6.70;1.67;;;12.70;59.00;;;;;;5092653;28;20423;-64
2023/05/29 03:29:05;;;;;;;8.82;1.85;;;12.70;59.00;;;;;;5089319;28;20146;-65
2023/05/29 03:31:31;;;;;;;9.48;2.15;;;12.70;59.00;;;;;;5089267;28;20114;-65
2023/05/29 03:33:58;;;;;;;9.13;2.00;;;12.70;59.00;;;;;;5107403;27;20046;-65
2023/05/29 03:36:23;;;;;;;7.15;1.95;;;12.60;59.00;;;;;;5089409;28;20035;-65
2023/05/29 03:38:49;;;;;;;6.43;1.80;;;12.60;59.00;;;;;;5109950;27;20036;-64
2023/05/29 03:41:15;;;;;;;8.75;2.13;;;12.60;59.10;;;;;;5089198;28;20036;-64
2023/05/29 03:43:41;;;;;;;5.75;2.00;;;12.50;59.10;;;;;;5121646;27;20485;-65
2023/05/29 03:46:07;;;;;;;9.57;1.92;;;12.50;59.10;;;;;;5088367;28;20550;-65
2023/05/29 03:48:33;;;;;;;8.18;1.70;;;12.50;59.10;;;;;;5114666;27;20070;-65
2023/05/29 03:50:58;;;;;;;7.68;1.65;;;12.50;59.20;;;;;;5072387;28;20039;-64
2023/05/29 03:53:24;;;;;;;6.75;1.70;;;12.50;59.20;;;;;;5089200;28;20471;-65
2023/05/29 03:55:50;;;;;;;7.45;1.90;;;12.50;59.20;;;;;;5070948;28;20044;-65
2023/05/29 03:58:16;;;;;;;8.30;2.25;;;12.50;59.30;;;;;;5089365;28;20140;-65
2023/05/29 04:00:41;;;;;;;9.13;2.33;;;12.40;59.30;;;;;;5089163;28;20089;-65
2023/05/29 04:03:08;;;;;;;5.82;1.95;;;12.40;59.30;;;;;;5114387;27;20044;-65
2023/05/29 04:05:34;;;;;;;6.07;2.15;;;12.40;59.40;;;;;;5088326;28;20038;-65
2023/05/29 04:08:00;;;;;;;9.88;2.00;;;12.40;59.50;;;;;;5120523;27;20035;-64
2023/05/29 04:10:26;;;;;;;9.55;2.22;;;12.30;59.50;;;;;;5120890;27;20471;-64
2023/05/29 04:12:52;;;;;;;5.72;2.00;;;12.30;59.60;;;;;;5105019;27;20090;-64
2023/05/29 04:15:18;;;;;;;11.38;2.10;;;12.30;59.60;;;;;;5088652;28;20051;-64
2023/05/29 04:17:43;;;;;;;8.00;1.52;;;12.30;59.60;;;;;;5071790;28;20541;-64
2023/05/29 04:20:09;;;;;;;8.52;2.03;;;12.30;59.70;;;;;;5110351;27;20131;-64
2023/05/29 04:22:36;;;;;;;7.25;1.85;;;12.30;59.80;;;;;;5121063;27;20124;-64
2023/05/29 04:25:03;;;;;;;8.15;2.00;;;12.30;59.80;;;;;;5068912;28;20550;-64
2023/05/29 04:27:30;;;;;;;8.80;2.33;;;12.30;59.90;;;;;;5105715;28;20041;-64
2023/05/29 04:29:56;;;;;;;8.90;2.10;;;12.30;60.00;;;;;;5088565;28;20101;-64
2023/05/29 04:32:22;;;;;;;5.57;1.95;;;12.20;60.00;;;;;;5111147;28;20049;-64
2023/05/29 04:34:47;;;;;;;8.95;2.17;;;12.20;60.00;;;;;;5071369;28;20480;-64
2023/05/29 04:37:13;;;;;;;8.60;2.03;;;12.20;60.10;;;;;;5108401;27;20040;-64
2023/05/29 04:39:39;;;;;;;5.15;1.50;;;12.20;60.20;;;;;;5059149;28;20036;-64
2023/05/29 04:42:05;;;;;;;9.48;2.53;;;12.20;60.20;;;;;;5092848;28;20036;-65
2023/05/29 04:44:31;;;;;;;9.18;2.20;;;12.20;60.30;;;;;;5121223;27;20474;-64
2023/05/29 04:46:57;;;;;;;8.52;2.22;;;12.20;60.50;;;;;;5117125;27;20056;-65
2023/05/29 04:49:23;;;;;;;14.00;2.67;;;12.20;60.60;;;;;;5092812;28;20337;-65
2023/05/29 04:51:52;;;;;;;7.32;2.10;;;12.20;60.70;;;;;;5125018;27;20119;-64
2023/05/29 04:54:19;;;;;;;9.98;2.30;;;12.20;61.30;;;;;;5075992;28;20050;-65
2023/05/29 04:56:46;;;;;;;10.82;2.13;;;12.20;61.00;;;;;;5119981;27;20411;-65
2023/05/29 04:59:12;;;;;;;10.88;2.38;;;12.20;61.20;;;;;;5075270;28;20051;-64
2023/05/29 05:01:38;;;;;;;9.27;2.55;;;12.20;61.40;;;;;;5091912;28;20047;-65
2023/05/29 05:04:03;;;;;;;9.43;2.80;;;12.20;61.70;;;;;;5125182;27;20036;-65
2023/05/29 05:06:29;;;;;;;9.57;2.50;;;12.20;62.10;;;;;;5075009;28;20428;-64
2023/05/29 05:08:55;;;;;;;9.40;2.72;;;12.30;62.70;;;;;;5123610;27;20036;-65
2023/05/29 05:11:23;;;;;;;12.27;2.40;;;12.30;63.10;;;;;;5125203;27;20036;-64
2023/05/29 05:13:49;;;;;;;7.80;2.33;;;12.40;63.40;;;;;;5091966;28;20044;-65
2023/05/29 05:16:15;;;;;;;10.65;2.60;;;12.50;63.40;;;;;;5075269;28;20204;-65
2023/05/29 05:18:40;;;;;;;11.95;3.30;;;12.60;63.40;;;;;;5074898;28;20225;-65
2023/05/29 05:21:06;;;;;;;9.77;2.85;;;12.70;63.30;;;;;;5110967;27;20040;-65
2023/05/29 05:23:32;;;;;;;10.30;2.22;;;12.90;63.30;;;;;;5125410;27;20132;-65
2023/05/29 05:25:58;;;;;;;7.40;2.88;;;13.00;62.90;;;;;;5091310;28;20036;-65
2023/05/29 05:28:24;;;;;;;10.70;2.50;;;13.20;62.80;;;;;;5092919;28;20104;-65
2023/05/29 05:30:51;;;;;;;7.85;2.88;;;13.30;62.30;;;;;;5091500;28;20139;-65
2023/05/29 05:33:16;;;;;;;12.82;3.40;;;13.60;61.80;;;;;;5072182;28;20459;-65
2023/05/29 05:35:42;;;;;;;10.30;2.97;;;13.70;61.40;;;;;;5109581;27;20048;-65
2023/05/29 05:38:08;;;;;;;10.57;2.80;;;13.90;60.80;;;;;;5112331;27;20384;-65
2023/05/29 05:40:33;;;;;;;10.10;3.20;;;14.10;60.20;;;;;;5091574;28;20102;-65
2023/05/29 05:42:59;;;;;;;11.25;2.85;;;14.30;59.90;;;;;;5115213;27;20048;-65
2023/05/29 05:45:25;;;;;;;9.73;2.67;;;14.60;59.60;;;;;;5112232;27;20040;-65
2023/05/29 05:47:50;;;;;;;10.73;2.63;;;14.90;58.60;;;;;;5091083;28;20044;-65
2023/05/29 05:50:16;;;;;;;10.27;2.42;;;15.20;58.20;;;;;;5124410;27;20111;-65
2023/05/29 05:52:42;;;;;;;10.88;2.70;;;15.60;57.60;;;;;;5074613;28;20442;-65
2023/05/29 05:55:08;;;;;;;10.93;3.05;;;15.90;56.70;;;;;;5112093;27;20177;-65
2023/05/29 05:57:35;;;;;;;8.50;2.60;;;16.30;55.80;;;;;;5091034;28;20079;-65
2023/05/29 06:00:12;;;;;;;12.40;2.53;;;16.60;54.70;;;;;;5091139;28;20040;-65
2023/05/29 06:02:42;;;;;;;7.93;2.25;;;16.80;54.30;;;;;;5075007;28;20050;-65
2023/05/29 06:05:09;;;;;;;11.25;2.50;;;17.00;53.10;;;;;;5124079;27;20047;-65
2023/05/29 06:07:35;;;;;;;9.45;2.67;;;17.20;52.20;;;;;;5119543;27;20067;-65
2023/05/29 06:10:01;;;;;;;10.43;2.60;;;17.30;50.90;;;;;;5091276;28;20095;-65
2023/05/29 06:12:27;;;;;;;10.98;3.00;;;17.30;50.70;;;;;;5091318;28;20043;-65
2023/05/29 06:14:53;;;;;;;11.70;2.78;;;17.40;50.20;;;;;;5090459;28;20042;-65
2023/05/29 06:17:18;;;;;;;12.32;2.88;;;17.40;50.00;;;;;;5118437;27;20033;-66
2023/05/29 06:19:44;;;;;;;12.38;3.47;;;17.50;49.80;;;;;;5090837;28;20036;-65
2023/05/29 06:22:10;;;;;;;11.00;3.13;;;17.60;49.30;;;;;;5124252;27;20142;-65
2023/05/29 06:24:35;;;;;;;9.73;2.75;;;17.60;49.00;;;;;;5090891;28;20126;-66
2023/05/29 06:27:01;;;;;;;9.30;2.38;;;17.70;48.60;;;;;;5091885;28;20048;-66
2023/05/29 06:29:27;;;;;;;9.30;2.95;;;17.70;47.90;;;;;;5090738;28;20040;-66
2023/05/29 06:31:53;;;;;;;11.57;2.58;;;17.70;47.60;;;;;;5073557;28;20063;-66
2023/05/29 06:34:18;;;;;;;13.48;3.53;;;17.80;47.30;;;;;;5090412;28;20188;-66
2023/05/29 06:36:44;;;;;;;7.15;2.17;;;17.80;47.10;;;;;;5090077;28;20419;-66
2023/05/29 06:39:10;;;;;;;9.43;2.53;;;17.80;47.50;;;;;;5091805;28;20101;-65
2023/05/29 06:41:36;;;;;;;9.30;2.60;;;17.80;47.10;;;;;;5073947;28;20102;-65
2023/05/29 06:44:01;;;;;;;11.77;2.67;;;17.90;46.80;;;;;;5090998;28;20115;-68
2023/05/29 06:46:27;;;;;;;14.40;3.65;;;17.90;46.10;;;;;;5091059;28;20113;-68
2023/05/29 06:48:53;;;;;;;12.15;2.78;;;17.80;45.90;;;;;;5091732;28;20036;-69
2023/05/29 06:51:18;;;;;;;11.77;3.20;;;17.80;46.20;;;;;;5091830;28;20399;-68
2023/05/29 06:53:44;;;;;;;9.95;3.28;;;17.70;45.80;;;;;;5072634;28;20218;-68
2023/05/29 06:56:10;;;;;;;12.13;3.10;;;17.60;45.80;;;;;;5105884;28;20479;-68
2023/05/29 06:58:36;;;;;;;15.82;2.97;;;17.60;45.70;;;;;;5073481;28;20036;-69
2023/05/29 07:01:01;;;;;;;14.63;3.15;;;17.50;46.10;;;;;;5091666;28;20039;-65
2023/05/29 07:03:28;;;;;;;10.45;3.40;;;17.40;45.90;;;;;;5090558;28;20048;-68
2023/05/29 07:05:53;;;;;;;11.43;3.03;;;17.30;46.30;;;;;;5097695;28;20040;-68
2023/05/29 07:08:19;;;;;;;12.02;3.60;;;17.20;46.50;;;;;;5057247;28;20043;-68
2023/05/29 07:10:45;;;;;;;11.40;3.20;;;17.20;46.80;;;;;;5075267;28;20082;-69
2023/05/29 07:13:16;;;;;;;14.55;3.45;;;17.10;46.90;;;;;;5072939;28;20036;-68
2023/05/29 07:15:41;;;;;;;12.65;3.13;;;17.00;47.20;;;;;;5074053;28;20078;-68
2023/05/29 07:18:07;;;;;;;14.05;3.58;;;17.00;47.10;;;;;;5111599;27;20075;-68
2023/05/29 07:20:33;;;;;;;13.48;3.85;;;16.90;47.00;;;;;;5090893;28;20502;-68
2023/05/29 07:22:59;;;;;;;8.23;3.15;;;16.80;46.30;;;;;;5090986;28;20063;-69
2023/05/29 07:25:26;;;;;;;12.10;3.15;;;16.80;46.80;;;;;;5091230;28;20078;-68
2023/05/29 07:27:51;;;;;;;14.57;3.28;;;16.80;47.40;;;;;;5091022;28;20043;-68
2023/05/29 07:30:18;;;;;;;9.35;3.03;;;16.80;47.30;;;;;;5090503;28;20044;-69
2023/05/29 07:32:44;;;;;;;11.70;3.17;;;16.80;46.80;;;;;;5073887;28;20086;-68
2023/05/29 07:35:09;;;;;;;15.88;3.95;;;16.70;47.00;;;;;;5115500;27;20036;-68
2023/05/29 07:37:35;;;;;;;12.95;3.88;;;16.70;47.50;;;;;;5109389;27;20039;-69
2023/05/29 07:40:01;;;;;;;13.02;3.72;;;16.80;48.40;;;;;;5121477;27;20032;-69
2023/05/29 07:42:27;;;;;;;11.38;3.33;;;16.80;47.70;;;;;;5089637;28;20432;-69
2023/05/29 07:44:53;;;;;;;11.05;3.15;;;16.90;47.30;;;;;;5090624;28;20032;-69
2023/05/29 07:47:18;;;;;;;12.88;3.63;;;16.90;47.80;;;;;;5091436;28;20048;-69
2023/05/29 07:49:44;;;;;;;10.48;3.50;;;16.90;47.30;;;;;;5073071;28;20075;-68
2023/05/29 07:52:10;;;;;;;11.45;3.05;;;16.90;47.40;;;;;;5073455;28;20042;-69
2023/05/29 07:54:36;;;;;;;10.32;3.17;;;17.00;47.50;;;;;;5073082;28;20054;-69
2023/05/29 07:57:09;;;;;;;14.45;3.70;;;17.00;47.60;;;;;;5090133;28;20040;-70
2023/05/29 07:59:35;;;;;;;11.75;4.18;;;17.10;47.30;;;;;;5113481;27;20433;-68
2023/05/29 08:02:03;;;;;;;11.32;3.17;;;17.30;47.80;;;;;;5089937;28;20040;-68
2023/05/29 08:04:28;;;;;;;11.95;3.38;;;17.40;48.00;;;;;;5115180;27;20048;-65
2023/05/29 08:06:54;;;;;;;11.88;3.55;;;17.50;47.50;;;;;;5122559;27;20384;-65
2023/05/29 08:09:20;;;;;;;13.55;3.75;;;17.60;47.60;;;;;;5088921;28;20106;-64
2023/05/29 08:11:47;;;;;;;12.68;3.67;;;17.70;47.10;;;;;;5092516;28;20044;-65
2023/05/29 08:14:15;;;;;;;12.80;3.58;;;17.80;46.60;;;;;;5089056;28;20039;-65
2023/05/29 08:16:41;;;;;;;15.15;3.42;;;17.90;47.00;;;;;;5089059;28;20055;-65
2023/05/29 08:19:06;;;;;;;12.40;3.63;;;17.90;46.50;;;;;;5088877;28;20048;-65
2023/05/29 08:21:32;;;;;;;8.55;3.08;;;18.10;46.10;;;;;;5072320;28;20054;-65
2023/05/29 08:23:59;;;;;;;11.23;3.42;;;18.20;46.10;;;;;;5089064;28;20047;-65
2023/05/29 08:26:25;;;;;;;10.40;3.20;;;18.30;45.60;;;;;;5115247;27;20056;-65
2023/05/29 08:28:51;;;;;;;12.23;3.55;;;18.50;44.90;;;;;;5090489;28;20109;-65
2023/05/29 08:31:17;;;;;;;12.18;3.95;;;18.50;44.90;;;;;;5088824;28;20082;-64
2023/05/29 08:33:42;;;;;;;10.40;3.38;;;18.50;45.10;;;;;;5091299;28;20040;-65
2023/05/29 08:36:08;;;;;;;12.98;3.85;;;18.50;45.00;;;;;;5123391;28;20036;-65
2023/05/29 08:38:35;;;;;;;13.50;3.83;;;18.50;45.50;;;;;;5112029;28;20040;-65
2023/05/29 08:41:01;;;;;;;13.23;3.28;;;18.50;45.60;;;;;;5072512;28;20040;-65
2023/05/29 08:43:31;;;;;;;12.50;3.95;;;18.60;45.50;;;;;;5113655;28;20052;-65
2023/05/29 08:46:03;;;;;;;12.38;3.67;;;18.70;44.60;;;;;;5086788;28;20040;-65
2023/05/29 08:48:30;;;;;;;11.93;3.88;;;18.70;44.30;;;;;;5072265;28;20097;-65
2023/05/29 08:50:58;;;;;;;10.30;3.42;;;18.80;44.90;;;;;;5089016;28;20115;-65
2023/05/29 08:53:25;;;;;;;10.38;3.25;;;18.80;44.80;;;;;;5110296;28;20036;-65
2023/05/29 08:55:55;;;;;;;13.20;4.00;;;18.90;44.60;;;;;;5122452;28;20386;-66
2023/05/29 08:58:22;;;;;;;11.13;3.65;;;18.90;44.80;;;;;;5072052;28;20411;-66
2023/05/29 09:00:49;;;;;;;13.25;3.78;;;19.00;44.20;;;;;;5122604;28;20048;-66
2023/05/29 09:03:15;;;;;;;13.15;3.67;;;19.00;44.60;;;;;;5094563;28;20108;-66
2023/05/29 09:05:41;;;;;;;16.52;4.65;;;19.00;44.70;;;;;;5089752;28;20130;-66
2023/05/29 09:08:09;;;;;;;12.73;3.67;;;19.00;44.40;;;;;;5088771;28;20189;-66
2023/05/29 09:10:35;;;;;;;11.27;4.03;;;19.00;44.30;;;;;;5071616;28;20601;-66
2023/05/29 09:13:02;;;;;;;12.10;3.30;;;19.00;43.50;;;;;;5115151;28;20072;-69
2023/05/29 09:15:28;;;;;;;11.48;3.35;;;19.00;43.00;;;;;;5089007;28;20540;-69
2023/05/29 09:17:56;;;;;;;9.55;3.30;;;19.00;43.70;;;;;;5116904;28;20089;-69
2023/05/29 09:20:23;;;;;;;16.77;3.85;;;19.00;43.60;;;;;;5089190;28;20047;-69
2023/05/29 09:23:01;;;;;;;13.75;3.90;;;19.00;43.00;;;;;;5071936;28;20039;-69
2023/05/29 09:25:28;;;;;;;11.68;3.08;;;18.90;42.70;;;;;;5093367;28;20417;-69
2023/05/29 09:28:03;;;;;;;11.07;3.78;;;18.80;42.50;;;;;;5092345;28;20543;-69
2023/05/29 09:30:44;;;;;;;18.90;4.80;;;18.70;42.80;;;;;;5092384;28;20055;-69
2023/05/29 09:33:11;;;;;;;11.93;3.65;;;18.60;42.90;;;;;;5092429;28;20033;-69
2023/05/29 09:35:39;;;;;;;12.80;4.40;;;18.50;43.50;;;;;;5092055;28;20097;-69
2023/05/29 09:38:06;;;;;;;14.35;3.60;;;18.50;43.80;;;;;;5093613;28;20067;-66
2023/05/29 09:40:33;;;;;;;13.25;3.65;;;18.50;44.40;;;;;;5113486;27;20044;-66
2023/05/29 09:43:04;;;;;;;14.20;3.88;;;18.50;44.40;;;;;;5120269;27;20042;-67
2023/05/29 09:45:30;;;;;;;11.90;3.38;;;18.50;44.30;;;;;;5091526;28;20249;-66
2023/05/29 09:47:56;;;;;;;16.02;4.55;;;18.50;44.50;;;;;;5091679;28;20498;-65
2023/05/29 09:50:26;;;;;;;11.70;3.00;;;18.50;44.20;;;;;;5092330;28;20392;-65
2023/05/29 09:52:53;;;;;;;11.55;3.45;;;18.50;44.00;;;;;;5125444;27;20040;-65
2023/05/29 09:55:24;;;;;;;14.27;3.55;;;18.50;43.90;;;;;;5111668;27;20044;-65
2023/05/29 09:57:53;;;;;;;13.73;3.50;;;18.40;44.00;;;;;;5091398;28;20089;-65
2023/05/29 10:00:19;;;;;;;14.52;3.60;;;18.50;44.80;;;;;;5093024;28;20533;-68
2023/05/29 10:02:45;;;;;;;17.27;4.72;;;18.50;45.50;;;;;;5124905;27;20486;-65
2023/05/29 10:05:12;;;;;;;14.95;3.33;;;18.50;45.80;;;;;;5122697;27;20052;-65
2023/05/29 10:07:43;;;;;;;15.07;4.03;;;18.50;44.60;;;;;;5070389;28;20537;-68
2023/05/29 10:10:12;;;;;;;14.10;3.60;;;18.60;44.70;;;;;;5076366;28;20063;-65
2023/05/29 10:12:47;;;;;;;12.18;3.38;;;18.60;44.90;;;;;;5076913;28;20047;-65
2023/05/29 10:15:14;;;;;;;14.60;4.53;;;18.70;45.10;;;;;;5076274;28;20074;-65
2023/05/29 10:17:48;;;;;;;12.93;3.42;;;18.80;45.10;;;;;;5059531;28;20071;-65
2023/05/29 10:20:16;;;;;;;14.55;3.92;;;18.90;45.40;;;;;;5076735;28;20072;-65
2023/05/29 10:22:46;;;;;;;11.80;3.10;;;18.90;45.60;;;;;;5076380;28;20050;-65
2023/05/29 10:25:14;;;;;;;14.25;3.08;;;19.00;45.40;;;;;;5076087;28;20048;-65
2023/05/29 10:27:40;;;;;;;11.57;3.72;;;19.00;44.00;;;;;;5108979;27;20039;-65
2023/05/29 10:30:25;;;;;;;14.05;3.35;;;19.00;43.70;;;;;;5110067;27;20119;-68
2023/05/29 10:33:28;;;;;;;12.00;3.47;;;19.10;43.00;;;;;;5080072;28;20028;-68
2023/05/29 10:36:08;;;;;;;15.05;3.83;;;19.10;42.30;;;;;;5077467;28;20043;-69
2023/05/29 10:38:34;;;;;;;12.82;3.38;;;19.10;43.20;;;;;;5094917;28;20040;-69
2023/05/29 10:41:28;;;;;;;13.35;3.55;;;19.20;43.60;;;;;;5110850;27;20223;-69
2023/05/29 10:44:01;;;;;;;12.23;3.17;;;19.20;43.40;;;;;;5076240;28;20090;-68
2023/05/29 10:46:43;;;;;;;15.13;4.80;;;19.20;43.00;;;;;;5108244;27;20406;-65
2023/05/29 10:49:21;;;;;;;15.60;3.80;;;19.30;43.60;;;;;;5108494;27;20372;-65
2023/05/29 10:51:48;;;;;;;11.68;3.67;;;19.30;44.00;;;;;;5060835;28;20117;-68
2023/05/29 10:54:16;;;;;;;14.27;3.92;;;19.40;44.30;;;;;;5110485;27;20039;-69
2023/05/29 10:56:45;;;;;;;10.98;3.13;;;19.50;43.60;;;;;;5110962;27;20037;-69
2023/05/29 10:59:11;;;;;;;16.50;3.95;;;19.50;43.20;;;;;;5078877;28;20054;-69
2023/05/29 11:01:39;;;;;;;10.40;4.05;;;19.60;43.20;;;;;;5061305;28;20483;-69
2023/05/29 11:04:20;;;;;;;15.07;3.90;;;19.70;43.40;;;;;;5078654;28;20036;-69
2023/05/29 11:06:46;;;;;;;11.32;4.03;;;19.80;43.00;;;;;;5077379;28;20176;-69
2023/05/29 11:09:39;;;;;;;7.22;3.15;;;19.80;43.10;;;;;;5110046;27;20067;-68
2023/05/29 11:12:38;;;;;;;11.20;3.20;;;19.80;43.00;;;;;;5084603;28;20040;-68
2023/05/29 11:15:12;;;;;;;12.45;3.88;;;19.80;42.80;;;;;;5112040;27;20047;-68
2023/05/29 11:17:37;;;;;;;13.73;4.05;;;19.80;42.70;;;;;;5081815;28;20048;-68
2023/05/29 11:20:05;;;;;;;11.77;3.70;;;19.80;42.80;;;;;;5078905;28;20094;-69
2023/05/29 11:23:07;;;;;;;14.10;3.60;;;19.90;42.20;;;;;;5111305;27;20050;-68
2023/05/29 11:25:35;;;;;;;13.35;4.32;;;19.90;42.10;;;;;;5075425;28;21852;-68
2023/05/29 11:28:04;;;;;;;13.07;3.70;;;19.80;42.20;;;;;;5077544;28;20194;-69
2023/05/29 11:30:30;;;;;;;13.77;3.75;;;19.80;42.50;;;;;;5108748;27;20043;-71
2023/05/29 11:33:01;;;;;;;12.50;3.72;;;19.80;42.00;;;;;;5076501;28;20048;-70
2023/05/29 11:35:31;;;;;;;12.98;4.22;;;19.80;41.40;;;;;;5075945;28;20181;-71
2023/05/29 11:37:57;;;;;;;11.13;3.40;;;19.70;41.60;;;;;;5074718;28;20040;-71
2023/05/29 11:40:23;;;;;;;11.80;2.90;;;19.70;41.20;;;;;;5091000;28;20048;-66
2023/05/29 11:42:50;;;;;;;14.52;3.47;;;19.70;41.50;;;;;;5107092;27;20410;-66
2023/05/29 11:45:20;;;;;;;10.32;3.10;;;19.60;41.90;;;;;;5074422;28;20037;-67
2023/05/29 11:47:57;;;;;;;13.43;3.20;;;19.60;41.60;;;;;;5106750;27;20051;-66
2023/05/29 11:50:29;;;;;;;13.02;3.55;;;19.60;41.90;;;;;;5081897;28;20047;-66
2023/05/29 11:52:56;;;;;;;9.82;3.05;;;19.60;42.00;;;;;;5075325;28;20039;-66
2023/05/29 11:55:23;;;;;;;14.25;3.22;;;19.60;42.50;;;;;;5106875;27;20567;-67
2023/05/29 11:57:59;;;;;;;11.98;3.28;;;19.60;42.80;;;;;;5090617;28;20032;-67
2023/05/29 12:00:29;;;;;;;10.05;3.03;;;19.60;42.50;;;;;;5058393;28;20068;-66
2023/05/29 12:02:57;;;;;;;11.63;3.58;;;19.70;43.10;;;;;;5107879;27;20035;-67
2023/05/29 12:05:24;;;;;;;12.27;3.58;;;19.80;42.70;;;;;;5057640;28;20488;-66
2023/05/29 12:07:56;;;;;;;10.45;3.45;;;19.90;42.00;;;;;;5057700;28;20044;-66
2023/05/29 12:10:22;;;;;;;12.02;3.20;;;19.90;41.30;;;;;;5090700;28;20044;-67
2023/05/29 12:13:00;;;;;;;13.45;3.83;;;19.90;41.70;;;;;;5074117;28;20054;-67
2023/05/29 12:15:27;;;;;;;10.32;3.40;;;19.90;41.90;;;;;;5107722;27;20154;-66
2023/05/29 12:17:54;;;;;;;14.43;3.72;;;19.90;41.10;;;;;;5116416;27;20051;-66
2023/05/29 12:20:23;;;;;;;13.40;3.72;;;19.90;41.30;;;;;;5089074;28;20071;-67
2023/05/29 12:22:49;;;;;;;10.85;3.38;;;19.90;41.30;;;;;;5090277;28;20043;-66
2023/05/29 12:25:20;;;;;;;13.00;3.90;;;19.90;41.20;;;;;;5088735;28;20076;-66
2023/05/29 12:27:48;;;;;;;14.23;3.28;;;19.90;41.50;;;;;;5089754;28;20087;-67
2023/05/29 12:30:19;;;;;;;13.00;2.75;;;19.90;41.70;;;;;;5117409;27;20120;-66
2023/05/29 12:32:47;;;;;;;10.45;2.92;;;20.00;41.20;;;;;;5086430;28;20117;-66
2023/05/29 12:35:20;;;;;;;12.30;3.55;;;19.90;41.20;;;;;;5112968;27;20036;-66
2023/05/29 12:37:57;;;;;;;10.35;3.08;;;19.90;41.50;;;;;;5088445;28;20040;-66
2023/05/29 12:40:24;;;;;;;9.85;2.95;;;20.00;41.70;;;;;;5121232;28;20407;-66
2023/05/29 12:43:05;;;;;;;16.13;4.70;;;19.90;41.70;;;;;;5088320;28;20093;-66
2023/05/29 12:45:33;;;;;;;12.90;3.78;;;20.00;41.60;;;;;;5088637;28;20068;-65